createdAt,value
2023-04-22T00:00:23.413Z,12.40
2023-04-22T00:02:51.172Z,11.90
2023-04-22T00:05:20.489Z,11.23
2023-04-22T00:07:48.485Z,11.07
2023-04-22T00:10:15.996Z,15.38
2023-04-22T00:12:43.410Z,11.65
2023-04-22T00:15:11.125Z,12.38
2023-04-22T00:17:38.646Z,14.27
2023-04-22T00:20:07.726Z,12.07
2023-04-22T00:22:35.065Z,12.93
2023-04-22T00:25:02.409Z,11.32
2023-04-22T00:27:29.823Z,13.55
2023-04-22T00:29:57.147Z,11.35
2023-04-22T00:32:24.491Z,11.18
2023-04-22T00:34:51.824Z,10.80
2023-04-22T00:37:19.620Z,11.00
2023-04-22T00:39:47.494Z,12.57
2023-04-22T00:42:16.144Z,9.82
2023-04-22T00:44:44.412Z,11.45
2023-04-22T00:47:12.432Z,11.10
2023-04-22T00:49:40.280Z,12.57
2023-04-22T00:52:07.939Z,12.63
2023-04-22T00:54:36.532Z,11.43
2023-04-22T00:57:05.540Z,11.48
2023-04-22T00:59:33.354Z,10.82
2023-04-22T01:02:01.412Z,11.43
2023-04-22T01:04:29.791Z,10.98
2023-04-22T01:06:57.878Z,12.32
2023-04-22T01:09:25.426Z,12.68
2023-04-22T01:11:52.805Z,13.73
2023-04-22T01:14:20.259Z,16.35
2023-04-22T01:16:48.285Z,12.40
2023-04-22T01:19:16.782Z,15.98
2023-04-22T01:21:47.214Z,15.85
2023-04-22T01:24:14.633Z,11.68
2023-04-22T01:26:42.273Z,12.70
2023-04-22T01:29:09.894Z,14.30
2023-04-22T01:31:38.270Z,11.00
2023-04-22T01:34:06.256Z,11.73
2023-04-22T01:36:33.915Z,12.02
2023-04-22T01:39:01.559Z,10.00
2023-04-22T01:41:28.875Z,11.88
2023-04-22T01:43:58.422Z,10.23
2023-04-22T01:46:26.090Z,10.07
2023-04-22T01:48:53.555Z,11.07
2023-04-22T01:51:23.696Z,12.07
2023-04-22T01:53:51.244Z,13.90
2023-04-22T01:56:18.745Z,11.32
2023-04-22T01:58:47.008Z,10.38
2023-04-22T02:01:14.866Z,10.68
2023-04-22T02:03:42.517Z,11.23
2023-04-22T02:06:12.596Z,9.45
2023-04-22T02:08:39.995Z,12.07
2023-04-22T02:11:07.353Z,10.48
2023-04-22T02:13:39.804Z,8.35
2023-04-22T02:16:07.867Z,8.65
2023-04-22T02:18:35.516Z,10.68
2023-04-22T02:21:03.301Z,9.38
2023-04-22T02:23:31.217Z,12.32
2023-04-22T02:25:58.526Z,10.77
2023-04-22T02:28:25.953Z,11.20
2023-04-22T02:30:53.285Z,11.30
2023-04-22T02:33:23.433Z,13.75
2023-04-22T02:35:52.206Z,10.30
2023-04-22T02:38:20.127Z,11.52
2023-04-22T02:40:47.535Z,10.80
2023-04-22T02:43:14.891Z,13.00
2023-04-22T02:45:42.192Z,9.43
2023-04-22T02:48:10.009Z,12.38
2023-04-22T02:50:37.500Z,15.95
2023-04-22T02:53:04.935Z,9.48
2023-04-22T02:55:32.261Z,10.45
2023-04-22T02:57:59.667Z,10.13
2023-04-22T03:00:27.101Z,9.45
2023-04-22T03:02:55.818Z,11.80
2023-04-22T03:05:28.838Z,10.30
2023-04-22T03:07:56.338Z,11.85
2023-04-22T03:10:23.633Z,12.23
2023-04-22T03:12:51.650Z,10.23
2023-04-22T03:15:21.690Z,9.35
2023-04-22T03:17:49.752Z,10.05
2023-04-22T03:20:19.150Z,9.30
2023-04-22T03:22:46.533Z,12.32
2023-04-22T03:25:15.960Z,9.48
2023-04-22T03:27:49.686Z,11.23
2023-04-22T03:30:17.071Z,9.77
2023-04-22T03:32:44.661Z,11.23
2023-04-22T03:35:20.710Z,11.35
2023-04-22T03:37:50.402Z,11.48
2023-04-22T03:40:22.424Z,10.65
2023-04-22T03:42:50.321Z,9.13
2023-04-22T03:45:20.297Z,12.43
2023-04-22T03:47:55.860Z,12.60
2023-04-22T03:50:30.908Z,10.50
2023-04-22T03:53:00.107Z,14.98
2023-04-22T03:55:27.631Z,10.93
2023-04-22T03:57:56.582Z,9.80
2023-04-22T04:00:23.912Z,11.32
2023-04-22T04:03:04.341Z,13.63
2023-04-22T04:05:31.935Z,11.88
2023-04-22T04:07:59.621Z,11.38
2023-04-22T04:10:27.287Z,11.13
2023-04-22T04:12:56.464Z,10.18
2023-04-22T04:15:25.345Z,10.07
2023-04-22T04:17:53.500Z,10.60
2023-04-22T04:20:21.564Z,10.75
2023-04-22T04:22:48.981Z,10.75
2023-04-22T04:25:18.351Z,11.07
2023-04-22T04:27:46.143Z,9.90
2023-04-22T04:30:16.353Z,10.65
2023-04-22T04:32:48.444Z,9.50
2023-04-22T04:35:18.441Z,11.20
2023-04-22T04:37:53.868Z,7.57
2023-04-22T04:40:22.029Z,11.02
2023-04-22T04:43:04.386Z,10.15
2023-04-22T04:45:39.953Z,10.43
2023-04-22T04:48:09.054Z,10.23
2023-04-22T04:50:42.606Z,15.32
2023-04-22T04:53:12.092Z,9.93
2023-04-22T04:55:42.112Z,11.40
2023-04-22T04:58:17.249Z,10.55
2023-04-22T05:00:45.570Z,9.13
2023-04-22T05:03:13.725Z,10.73
2023-04-22T05:05:41.388Z,10.50
2023-04-22T05:08:08.690Z,7.70
2023-04-22T05:10:39.182Z,9.35
2023-04-22T05:13:06.501Z,8.98
2023-04-22T05:15:34.708Z,11.90
2023-04-22T05:18:02.187Z,11.90
2023-04-22T05:20:29.848Z,10.43
2023-04-22T05:22:57.212Z,10.13
2023-04-22T05:25:24.568Z,10.35
2023-04-22T05:28:00.791Z,8.40
2023-04-22T05:30:34.068Z,8.82
2023-04-22T05:33:01.585Z,8.95
2023-04-22T05:35:29.367Z,12.07
2023-04-22T05:37:56.655Z,10.30
2023-04-22T05:40:24.004Z,8.43
2023-04-22T05:42:51.304Z,8.77
2023-04-22T05:45:19.852Z,11.93
2023-04-22T05:47:47.404Z,8.48
2023-04-22T05:50:15.091Z,8.82
2023-04-22T05:52:49.903Z,8.20
2023-04-22T05:55:18.734Z,10.98
2023-04-22T05:57:46.183Z,8.10
2023-04-22T06:00:30.495Z,9.13
2023-04-22T06:03:21.148Z,9.55
2023-04-22T06:05:49.302Z,11.07
2023-04-22T06:08:19.589Z,8.63
2023-04-22T06:10:47.536Z,8.77
2023-04-22T06:13:14.920Z,8.38
2023-04-22T06:15:42.473Z,11.98
2023-04-22T06:18:10.902Z,10.52
2023-04-22T06:20:38.906Z,8.35
2023-04-22T06:23:06.309Z,9.20
2023-04-22T06:25:33.751Z,9.68
2023-04-22T06:28:01.188Z,9.85
2023-04-22T06:30:29.201Z,7.75
2023-04-22T06:32:56.962Z,8.90
2023-04-22T06:35:26.049Z,7.55
2023-04-22T06:37:56.191Z,11.65
2023-04-22T06:40:28.525Z,11.95
2023-04-22T06:43:05.246Z,8.80
2023-04-22T06:45:51.488Z,9.73
2023-04-22T06:48:39.275Z,7.20
2023-04-22T06:51:21.615Z,7.43
2023-04-22T06:53:49.028Z,7.93
2023-04-22T06:56:16.720Z,9.50
2023-04-22T06:58:44.058Z,8.60
2023-04-22T07:01:12.466Z,6.85
2023-04-22T07:03:41.669Z,7.10
2023-04-22T07:06:12.401Z,6.43
2023-04-22T07:08:40.631Z,5.82
2023-04-22T07:11:08.689Z,7.03
2023-04-22T07:14:02.057Z,9.98
2023-04-22T07:16:29.534Z,5.80
2023-04-22T07:18:57.331Z,6.05
2023-04-22T07:21:24.674Z,6.45
2023-04-22T07:23:52.078Z,6.90
2023-04-22T07:26:19.423Z,6.88
2023-04-22T07:28:46.853Z,6.00
2023-04-22T07:31:14.225Z,7.25
2023-04-22T07:33:41.646Z,6.32
2023-04-22T07:36:09.132Z,7.38
2023-04-22T07:38:38.662Z,6.90
2023-04-22T07:41:06.034Z,6.45
2023-04-22T07:43:33.392Z,8.07
2023-04-22T07:46:03.182Z,8.45
2023-04-22T07:48:30.583Z,9.00
2023-04-22T07:50:57.961Z,8.80
2023-04-22T07:53:25.472Z,6.75
2023-04-22T07:55:52.997Z,7.05
2023-04-22T07:58:20.371Z,6.50
2023-04-22T08:00:47.777Z,6.85
2023-04-22T08:03:15.443Z,7.50
2023-04-22T08:05:42.967Z,7.45
2023-04-22T08:08:10.504Z,6.30
2023-04-22T08:10:37.855Z,7.10
2023-04-22T08:13:06.076Z,5.75
2023-04-22T08:15:33.503Z,8.85
2023-04-22T08:18:00.919Z,6.72
2023-04-22T08:20:28.470Z,8.90
2023-04-22T08:23:00.292Z,7.57
2023-04-22T08:25:28.447Z,7.72
2023-04-22T08:27:55.859Z,5.65
2023-04-22T08:30:23.267Z,10.68
2023-04-22T08:32:53.086Z,6.30
2023-04-22T08:35:20.622Z,6.80
2023-04-22T08:37:47.949Z,6.28
2023-04-22T08:40:15.622Z,6.55
2023-04-22T08:42:45.069Z,7.30
2023-04-22T08:45:14.507Z,6.75
2023-04-22T08:47:43.183Z,6.63
2023-04-22T08:50:11.010Z,6.82
2023-04-22T08:52:38.423Z,5.50
2023-04-22T08:55:06.839Z,8.70
2023-04-22T08:57:36.073Z,7.50
2023-04-22T09:00:05.248Z,6.63
2023-04-22T09:02:33.507Z,6.10
2023-04-22T09:05:03.305Z,7.18
2023-04-22T09:07:31.992Z,5.28
2023-04-22T09:09:59.533Z,5.25
2023-04-22T09:12:27.592Z,9.65
2023-04-22T09:14:56.287Z,5.50
2023-04-22T09:17:32.292Z,9.25
2023-04-22T09:20:04.305Z,8.13
2023-04-22T09:23:01.884Z,4.85
2023-04-22T09:25:29.396Z,8.35
2023-04-22T09:27:58.571Z,10.13
2023-04-22T09:30:29.401Z,7.90
2023-04-22T09:32:58.982Z,6.30
2023-04-22T09:35:31.274Z,9.00
2023-04-22T09:38:00.629Z,7.55
2023-04-22T09:40:28.872Z,8.63
2023-04-22T09:42:58.632Z,7.20
2023-04-22T09:45:33.880Z,5.65
2023-04-22T09:48:09.560Z,5.60
2023-04-22T09:50:38.459Z,8.20
2023-04-22T09:53:11.417Z,6.65
2023-04-22T09:55:41.902Z,4.57
2023-04-22T09:58:14.406Z,6.88
2023-04-22T10:00:48.752Z,5.75
2023-04-22T10:03:17.167Z,5.47
2023-04-22T10:05:46.289Z,5.68
2023-04-22T10:08:15.706Z,4.85
2023-04-22T10:10:44.066Z,6.43
2023-04-22T10:13:11.720Z,5.30
2023-04-22T10:16:00.239Z,5.15
2023-04-22T10:18:28.835Z,5.85
2023-04-22T10:20:57.880Z,4.95
2023-04-22T10:23:26.652Z,6.07
2023-04-22T10:25:55.708Z,6.55
2023-04-22T10:28:24.697Z,4.43
2023-04-22T10:30:52.211Z,3.95
2023-04-22T10:33:39.191Z,6.22
2023-04-22T10:36:18.042Z,4.78
2023-04-22T10:39:17.646Z,5.68
2023-04-22T10:41:52.013Z,4.85
2023-04-22T10:44:20.920Z,6.35
2023-04-22T10:46:52.117Z,7.05
2023-04-22T10:49:21.527Z,4.47
2023-04-22T10:51:54.690Z,6.32
2023-04-22T10:54:48.252Z,5.30
2023-04-22T10:57:22.736Z,4.07
2023-04-22T10:59:54.104Z,6.13
2023-04-22T11:02:22.829Z,6.40
2023-04-22T11:04:54.476Z,8.50
2023-04-22T11:07:31.929Z,6.90
2023-04-22T11:10:15.689Z,5.18
2023-04-22T11:12:44.964Z,5.40
2023-04-22T11:15:17.784Z,4.88
2023-04-22T11:17:48.298Z,3.83
2023-04-22T11:20:18.662Z,3.83
2023-04-22T11:22:56.817Z,4.88
2023-04-22T11:25:25.220Z,3.75
2023-04-22T11:27:54.935Z,4.40
2023-04-22T11:30:24.455Z,5.80
2023-04-22T11:32:53.302Z,5.30
2023-04-22T11:35:39.656Z,4.18
2023-04-22T11:38:08.770Z,4.07
2023-04-22T11:40:42.102Z,4.20
2023-04-22T11:43:11.721Z,4.10
2023-04-22T11:45:39.641Z,4.00
2023-04-22T11:48:09.803Z,5.75
2023-04-22T11:50:39.805Z,3.42
2023-04-22T11:53:24.297Z,8.07
2023-04-22T11:55:52.169Z,7.13
2023-04-22T11:58:24.301Z,4.50
2023-04-22T12:00:53.668Z,5.70
2023-04-22T12:03:27.306Z,5.45
2023-04-22T12:06:03.922Z,5.05
2023-04-22T12:08:33.287Z,6.03
2023-04-22T12:11:06.411Z,4.10
2023-04-22T12:13:51.986Z,3.65
2023-04-22T12:16:20.246Z,4.88
2023-04-22T12:18:55.109Z,5.97
2023-04-22T12:21:24.708Z,4.57
2023-04-22T12:23:59.075Z,3.28
2023-04-22T12:26:27.843Z,5.95
2023-04-22T12:28:58.082Z,6.35
2023-04-22T12:31:26.497Z,5.38
2023-04-22T12:33:54.187Z,5.40
2023-04-22T12:36:21.953Z,5.35
2023-04-22T12:38:51.196Z,6.15
2023-04-22T12:41:18.833Z,5.63
2023-04-22T12:43:46.525Z,6.15
2023-04-22T12:46:13.925Z,6.47
2023-04-22T12:48:42.834Z,8.10
2023-04-22T12:51:10.305Z,5.63
2023-04-22T12:53:38.755Z,5.95
2023-04-22T12:56:06.141Z,8.73
2023-04-22T12:58:33.600Z,6.65
2023-04-22T13:01:00.992Z,7.07
2023-04-22T13:03:28.550Z,6.07
2023-04-22T13:05:57.608Z,3.80
2023-04-22T13:08:24.978Z,8.18
2023-04-22T13:10:52.719Z,6.28
2023-04-22T13:13:20.247Z,5.85
2023-04-22T13:15:53.339Z,6.88
2023-04-22T13:18:23.209Z,4.53
2023-04-22T13:20:51.347Z,6.60
2023-04-22T13:23:21.865Z,6.40
2023-04-22T13:28:18.237Z,8.45
2023-04-22T13:30:45.912Z,6.65
2023-04-22T13:33:13.252Z,7.47
2023-04-22T13:35:40.621Z,5.13
2023-04-22T13:38:08.031Z,4.40
2023-04-22T13:40:35.882Z,4.47
2023-04-22T13:43:03.350Z,6.43
2023-04-22T13:45:30.924Z,7.65
2023-04-22T13:47:58.395Z,5.45
2023-04-22T13:50:25.872Z,5.47
2023-04-22T13:52:53.311Z,5.30
2023-04-22T13:55:20.661Z,5.32
2023-04-22T13:57:48.070Z,5.90
2023-04-22T14:00:15.583Z,4.03
2023-04-22T14:02:43.282Z,5.25
2023-04-22T14:05:10.915Z,4.38
2023-04-22T14:07:38.297Z,3.28
2023-04-22T14:10:08.440Z,4.15
2023-04-22T14:12:37.037Z,4.40
2023-04-22T14:15:05.110Z,6.43
2023-04-22T14:17:32.801Z,5.10
2023-04-22T14:20:00.148Z,5.63
2023-04-22T14:22:27.486Z,3.33
2023-04-22T14:24:55.705Z,5.75
2023-04-22T14:27:23.244Z,6.75
2023-04-22T14:29:52.468Z,6.13
2023-04-22T14:32:21.335Z,5.10
2023-04-22T14:34:48.866Z,4.97
2023-04-22T14:37:16.277Z,4.93
2023-04-22T14:39:43.698Z,3.50
2023-04-22T14:42:11.209Z,4.93
2023-04-22T14:44:38.611Z,6.93
2023-04-22T14:47:06.185Z,3.63
2023-04-22T14:49:33.559Z,6.00
2023-04-22T14:52:01.562Z,5.18
2023-04-22T14:54:29.432Z,5.35
2023-04-22T14:56:56.777Z,5.45
2023-04-22T14:59:24.283Z,5.07
2023-04-22T15:01:51.586Z,7.95
2023-04-22T15:04:19.584Z,6.28
2023-04-22T15:06:47.113Z,7.03
2023-04-22T15:09:14.522Z,4.55
2023-04-22T15:11:41.910Z,6.13
2023-04-22T15:14:09.318Z,5.03
2023-04-22T15:16:36.743Z,3.53
2023-04-22T15:19:04.128Z,4.68
2023-04-22T15:21:32.113Z,4.18
2023-04-22T15:23:59.582Z,6.32
2023-04-22T15:26:26.988Z,3.75
2023-04-22T15:28:54.327Z,5.32
2023-04-22T15:31:21.840Z,6.30
2023-04-22T15:33:49.246Z,4.47
2023-04-22T15:36:19.432Z,3.67
2023-04-22T15:38:47.201Z,5.05
2023-04-22T15:41:15.631Z,7.80
2023-04-22T15:43:43.160Z,5.88
2023-04-22T15:46:10.543Z,6.35
2023-04-22T15:48:37.887Z,5.88
2023-04-22T15:51:05.306Z,5.40
2023-04-22T15:53:32.841Z,4.35
2023-04-22T15:56:00.205Z,5.38
2023-04-22T15:58:29.017Z,5.20
2023-04-22T16:01:11.543Z,5.47
2023-04-22T16:03:46.306Z,5.80
2023-04-22T16:06:13.929Z,6.15
2023-04-22T16:08:41.239Z,8.10
2023-04-22T16:11:08.718Z,6.25
2023-04-22T16:13:36.099Z,5.88
2023-04-22T16:16:03.469Z,6.78
2023-04-22T16:18:31.255Z,4.70
2023-04-22T16:21:00.247Z,4.53
2023-04-22T16:23:28.008Z,5.22
2023-04-22T16:25:55.447Z,7.38
2023-04-22T16:28:22.857Z,6.55
2023-04-22T16:30:50.230Z,5.88
2023-04-22T16:33:17.540Z,7.13
2023-04-22T16:35:45.031Z,10.63
2023-04-22T16:38:12.337Z,7.57
2023-04-22T16:40:39.874Z,8.20
2023-04-22T16:43:07.384Z,5.57
2023-04-22T16:45:34.807Z,8.57
2023-04-22T16:48:02.258Z,5.95
2023-04-22T16:50:29.693Z,7.82
2023-04-22T16:52:57.528Z,8.95
2023-04-22T16:55:26.169Z,7.80
2023-04-22T16:57:53.469Z,5.45
2023-04-22T17:00:21.061Z,6.85
2023-04-22T17:02:48.537Z,7.90
2023-04-22T17:05:16.241Z,7.80
2023-04-22T17:07:43.603Z,6.32
2023-04-22T17:10:11.083Z,6.57
2023-04-22T17:12:38.430Z,4.45
2023-04-22T17:15:06.804Z,7.03
2023-04-22T17:17:34.258Z,6.13
2023-04-22T17:20:02.524Z,7.07
2023-04-22T17:22:29.925Z,6.28
2023-04-22T17:24:58.779Z,5.88
2023-04-22T17:27:26.403Z,5.80
2023-04-22T17:29:53.825Z,7.03
2023-04-22T17:32:21.332Z,5.80
2023-04-22T17:34:48.720Z,7.03
2023-04-22T17:37:16.173Z,5.18
2023-04-22T17:39:43.607Z,5.53
2023-04-22T17:42:11.311Z,8.88
2023-04-22T17:44:38.883Z,6.28
2023-04-22T17:47:07.524Z,6.43
2023-04-22T17:49:35.148Z,6.03
2023-04-22T17:52:02.506Z,6.40
2023-04-22T17:54:29.918Z,7.60
2023-04-22T17:56:57.383Z,5.88
2023-04-22T17:59:24.811Z,6.43
2023-04-22T18:01:52.209Z,6.28
2023-04-22T18:04:19.882Z,6.05
2023-04-22T18:06:47.280Z,7.35
2023-04-22T18:09:14.643Z,8.05
2023-04-22T18:11:42.239Z,4.50
2023-04-22T18:14:09.932Z,5.38
2023-04-22T18:16:37.299Z,4.70
2023-04-22T18:19:06.849Z,5.07
2023-04-22T18:21:34.685Z,9.07
2023-04-22T18:24:02.764Z,8.60
2023-04-22T18:26:30.101Z,6.57
2023-04-22T18:28:58.068Z,7.35
2023-04-22T18:31:25.921Z,5.20
2023-04-22T18:33:53.372Z,6.07
2023-04-22T18:36:21.482Z,7.88
2023-04-22T18:38:48.802Z,8.00
2023-04-22T18:41:16.526Z,5.28
2023-04-22T18:43:43.826Z,6.63
2023-04-22T18:46:11.225Z,6.40
2023-04-22T18:48:38.546Z,6.82
2023-04-22T18:51:06.120Z,5.90
2023-04-22T18:53:34.342Z,8.45
2023-04-22T18:56:02.195Z,6.93
2023-04-22T18:58:29.529Z,6.70
2023-04-22T19:00:56.951Z,6.88
2023-04-22T19:03:24.498Z,11.05
2023-04-22T19:05:52.024Z,11.48
2023-04-22T19:08:19.335Z,11.60
2023-04-22T19:10:46.739Z,12.18
2023-04-22T19:13:28.699Z,10.63
2023-04-22T19:15:57.407Z,9.18
2023-04-22T19:18:24.931Z,10.63
2023-04-22T19:20:52.303Z,10.40
2023-04-22T19:23:19.655Z,10.27
2023-04-22T19:25:47.039Z,13.18
2023-04-22T19:28:14.397Z,13.15
2023-04-22T19:30:41.900Z,12.70
2023-04-22T19:33:09.227Z,14.32
2023-04-22T19:35:36.577Z,13.32
2023-04-22T19:38:03.893Z,14.57
2023-04-22T19:40:31.264Z,16.48
2023-04-22T19:42:59.158Z,16.02
2023-04-22T19:45:27.198Z,14.15
2023-04-22T19:47:54.944Z,16.45
2023-04-22T19:50:22.832Z,16.48
2023-04-22T19:52:50.949Z,13.95
2023-04-22T19:55:19.435Z,15.32
2023-04-22T19:57:46.828Z,12.77
2023-04-22T20:00:14.649Z,14.40
2023-04-22T20:02:42.720Z,13.68
2023-04-22T20:05:10.633Z,13.10
2023-04-22T20:07:38.358Z,12.98
2023-04-22T20:10:08.405Z,15.00
2023-04-22T20:12:36.925Z,12.52
2023-04-22T20:15:05.809Z,16.45
2023-04-22T20:17:39.112Z,16.45
2023-04-22T20:20:12.560Z,13.82
2023-04-22T20:22:41.779Z,14.88
2023-04-22T20:25:13.756Z,13.88
2023-04-22T20:30:10.026Z,16.35
2023-04-22T20:32:37.632Z,15.05
2023-04-22T20:35:06.815Z,14.15
2023-04-22T20:37:36.078Z,16.13
2023-04-22T20:40:05.672Z,16.52
2023-04-22T20:42:33.217Z,19.50
2023-04-22T20:45:00.543Z,16.40
2023-04-22T20:47:27.921Z,14.98
2023-04-22T20:49:55.301Z,16.30
2023-04-22T20:52:22.709Z,19.38
2023-04-22T20:54:55.010Z,17.75
2023-04-22T20:57:22.691Z,17.33
2023-04-22T20:59:49.991Z,16.65
2023-04-22T21:02:17.985Z,15.27
2023-04-22T21:04:46.379Z,17.75
2023-04-22T21:07:16.795Z,15.00
2023-04-22T21:09:44.352Z,17.08
2023-04-22T21:12:12.459Z,16.50
2023-04-22T21:14:43.272Z,15.32
2023-04-22T21:17:22.835Z,15.27
2023-04-22T21:19:51.140Z,15.02
2023-04-22T21:22:22.158Z,13.98
2023-04-22T21:24:50.702Z,12.57
2023-04-22T21:27:19.440Z,15.63
2023-04-22T21:29:48.471Z,14.48
2023-04-22T21:32:16.693Z,16.00
2023-04-22T21:34:44.843Z,13.70
2023-04-22T21:37:12.638Z,15.45
2023-04-22T21:39:40.769Z,14.45
2023-04-22T21:42:08.631Z,16.08
2023-04-22T21:44:37.553Z,14.48
2023-04-22T21:47:06.509Z,14.50
2023-04-22T21:49:33.904Z,13.70
2023-04-22T21:52:01.310Z,13.95
2023-04-22T21:54:28.875Z,12.57
2023-04-22T21:56:57.004Z,12.73
2023-04-22T21:59:24.804Z,15.40
2023-04-22T22:01:52.679Z,14.50
2023-04-22T22:04:20.561Z,14.65
2023-04-22T22:06:48.953Z,13.15
2023-04-22T22:09:16.655Z,12.85
2023-04-22T22:11:44.283Z,14.18
2023-04-22T22:14:11.624Z,11.90
2023-04-22T22:16:39.421Z,13.25
2023-04-22T22:19:07.051Z,14.38
2023-04-22T22:21:34.690Z,13.65
2023-04-22T22:24:02.004Z,12.82
2023-04-22T22:26:29.469Z,11.15
2023-04-22T22:28:56.802Z,14.80
2023-04-22T22:31:24.124Z,12.88
2023-04-22T22:33:51.463Z,10.90
2023-04-22T22:36:19.145Z,13.15
2023-04-22T22:38:46.489Z,12.90
2023-04-22T22:41:14.192Z,14.38
2023-04-22T22:43:41.562Z,13.32
2023-04-22T22:46:09.136Z,11.88
2023-04-22T22:48:36.891Z,14.90
2023-04-22T22:51:04.420Z,12.60
2023-04-22T22:53:34.260Z,13.18
2023-04-22T22:56:01.657Z,13.35
2023-04-22T22:58:29.038Z,13.45
2023-04-22T23:00:56.674Z,12.52
2023-04-22T23:03:24.187Z,15.90
2023-04-22T23:05:51.621Z,13.35
2023-04-22T23:08:19.037Z,12.93
2023-04-22T23:10:46.340Z,10.68
2023-04-22T23:13:13.739Z,12.18
2023-04-22T23:15:41.083Z,14.73
2023-04-22T23:18:09.466Z,11.18
2023-04-22T23:20:37.640Z,10.88
2023-04-22T23:23:05.711Z,10.48
2023-04-22T23:25:35.863Z,11.32
2023-04-22T23:28:03.508Z,11.13
2023-04-22T23:30:31.286Z,12.40
2023-04-22T23:33:02.861Z,13.02
2023-04-22T23:35:33.083Z,11.77
2023-04-22T23:38:03.951Z,12.75
2023-04-22T23:40:31.523Z,11.45
2023-04-22T23:42:58.859Z,10.40
2023-04-22T23:45:26.227Z,9.65
2023-04-22T23:47:53.669Z,11.82
2023-04-22T23:50:21.170Z,9.35
2023-04-22T23:52:48.516Z,11.63
2023-04-22T23:55:16.328Z,10.32
2023-04-22T23:57:44.002Z,12.02
